sensor_id;sensor_type;location;lat;lon;timestamp;pressure;altitude;pressure_sealevel;temperature;humidity
69127;BME280;56688;50.234;19.292;2023-07-13T00:07:09;98189.95;;;20.98;81.38
69127;BME280;56688;50.234;19.292;2023-07-13T00:09:36;98192.11;;;20.87;81.77
69127;BME280;56688;50.234;19.292;2023-07-13T00:12:03;98187.27;;;20.76;82.37
69127;BME280;56688;50.234;19.292;2023-07-13T00:14:30;98189.92;;;20.68;83.21
69127;BME280;56688;50.234;19.292;2023-07-13T00:16:57;98195.23;;;20.59;83.90
69127;BME280;56688;50.234;19.292;2023-07-13T00:19:27;98199.77;;;20.50;84.72
69127;BME280;56688;50.234;19.292;2023-07-13T00:21:54;98201.09;;;20.40;85.75
69127;BME280;56688;50.234;19.292;2023-07-13T00:24:22;98192.39;;;20.32;86.89
69127;BME280;56688;50.234;19.292;2023-07-13T00:26:51;98184.72;;;20.24;87.73
69127;BME280;56688;50.234;19.292;2023-07-13T00:29:18;98170.64;;;20.14;88.42
69127;BME280;56688;50.234;19.292;2023-07-13T00:31:45;98182.12;;;20.12;89.03
69127;BME280;56688;50.234;19.292;2023-07-13T00:34:12;98188.03;;;20.07;89.37
69127;BME280;56688;50.234;19.292;2023-07-13T00:36:40;98193.36;;;20.01;89.85
69127;BME280;56688;50.234;19.292;2023-07-13T00:39:07;98202.92;;;19.98;90.04
69127;BME280;56688;50.234;19.292;2023-07-13T00:42:46;98207.55;;;19.93;90.44
69127;BME280;56688;50.234;19.292;2023-07-13T00:48:59;98179.23;;;19.94;90.74
69127;BME280;56688;50.234;19.292;2023-07-13T00:52:09;98162.13;;;19.97;90.83
69127;BME280;56688;50.234;19.292;2023-07-13T00:55:15;98155.27;;;20.00;90.83
69127;BME280;56688;50.234;19.292;2023-07-13T00:57:44;98145.23;;;20.04;90.85
69127;BME280;56688;50.234;19.292;2023-07-13T01:00:11;98123.92;;;20.07;90.59
69127;BME280;56688;50.234;19.292;2023-07-13T01:02:41;98111.33;;;20.10;90.22
69127;BME280;56688;50.234;19.292;2023-07-13T01:05:12;98108.84;;;20.13;89.98
69127;BME280;56688;50.234;19.292;2023-07-13T01:07:41;98113.14;;;20.15;89.80
69127;BME280;56688;50.234;19.292;2023-07-13T01:10:12;98117.69;;;20.20;89.63
69127;BME280;56688;50.234;19.292;2023-07-13T01:12:39;98117.77;;;20.25;89.16
69127;BME280;56688;50.234;19.292;2023-07-13T01:18:07;98125.23;;;20.34;89.09
69127;BME280;56688;50.234;19.292;2023-07-13T01:20:36;98120.71;;;20.41;89.35
69127;BME280;56688;50.234;19.292;2023-07-13T01:23:07;98114.92;;;20.46;89.05
69127;BME280;56688;50.234;19.292;2023-07-13T01:25:36;98122.65;;;20.48;88.48
69127;BME280;56688;50.234;19.292;2023-07-13T01:28:05;98122.81;;;20.50;88.16
69127;BME280;56688;50.234;19.292;2023-07-13T01:30:32;98124.39;;;20.49;87.96
69127;BME280;56688;50.234;19.292;2023-07-13T01:33:00;98122.06;;;20.49;87.91
69127;BME280;56688;50.234;19.292;2023-07-13T01:35:28;98119.11;;;20.48;87.88
69127;BME280;56688;50.234;19.292;2023-07-13T01:37:55;98119.61;;;20.48;88.16
69127;BME280;56688;50.234;19.292;2023-07-13T01:40:23;98121.44;;;20.47;88.33
69127;BME280;56688;50.234;19.292;2023-07-13T01:42:51;98126.59;;;20.47;88.66
69127;BME280;56688;50.234;19.292;2023-07-13T01:45:19;98123.63;;;20.48;88.37
69127;BME280;56688;50.234;19.292;2023-07-13T01:47:47;98123.34;;;20.48;88.47
69127;BME280;56688;50.234;19.292;2023-07-13T01:50:14;98126.95;;;20.51;88.01
69127;BME280;56688;50.234;19.292;2023-07-13T01:52:41;98128.56;;;20.49;87.68
69127;BME280;56688;50.234;19.292;2023-07-13T01:55:08;98123.20;;;20.47;87.69
69127;BME280;56688;50.234;19.292;2023-07-13T01:57:35;98123.69;;;20.44;87.22
69127;BME280;56688;50.234;19.292;2023-07-13T02:00:04;98138.23;;;20.39;87.29
69127;BME280;56688;50.234;19.292;2023-07-13T02:02:41;98140.09;;;20.33;87.45
69127;BME280;56688;50.234;19.292;2023-07-13T02:05:12;98132.30;;;20.30;87.91
69127;BME280;56688;50.234;19.292;2023-07-13T02:07:40;98137.38;;;20.28;87.96
69127;BME280;56688;50.234;19.292;2023-07-13T02:10:19;98142.05;;;20.21;88.20
69127;BME280;56688;50.234;19.292;2023-07-13T02:13:17;98153.53;;;20.12;88.38
69127;BME280;56688;50.234;19.292;2023-07-13T02:15:45;98138.73;;;20.07;88.99
69127;BME280;56688;50.234;19.292;2023-07-13T02:18:12;98127.16;;;20.04;89.28
69127;BME280;56688;50.234;19.292;2023-07-13T02:20:43;98129.79;;;20.01;88.97
69127;BME280;56688;50.234;19.292;2023-07-13T02:23:11;98136.69;;;19.95;88.74
69127;BME280;56688;50.234;19.292;2023-07-13T02:25:38;98142.27;;;19.90;88.77
69127;BME280;56688;50.234;19.292;2023-07-13T02:28:05;98153.09;;;19.82;88.91
69127;BME280;56688;50.234;19.292;2023-07-13T02:30:34;98165.30;;;19.73;89.24
69127;BME280;56688;50.234;19.292;2023-07-13T02:33:01;98164.75;;;19.65;89.69
69127;BME280;56688;50.234;19.292;2023-07-13T02:35:28;98155.02;;;19.63;90.09
69127;BME280;56688;50.234;19.292;2023-07-13T02:37:58;98143.33;;;19.59;90.00
69127;BME280;56688;50.234;19.292;2023-07-13T02:40:26;98130.37;;;19.56;90.04
69127;BME280;56688;50.234;19.292;2023-07-13T02:42:53;98130.70;;;19.53;90.20
69127;BME280;56688;50.234;19.292;2023-07-13T02:45:20;98125.65;;;19.50;90.55
69127;BME280;56688;50.234;19.292;2023-07-13T02:47:56;98123.60;;;19.48;90.49
69127;BME280;56688;50.234;19.292;2023-07-13T03:22:52;98128.93;;;19.16;89.55
69127;BME280;56688;50.234;19.292;2023-07-13T03:29:08;98124.95;;;19.18;89.33
69127;BME280;56688;50.234;19.292;2023-07-13T03:32:19;98129.51;;;19.18;89.43
69127;BME280;56688;50.234;19.292;2023-07-13T03:42:40;98139.81;;;19.29;89.15
69127;BME280;56688;50.234;19.292;2023-07-13T03:45:20;98146.62;;;19.41;89.28
69127;BME280;56688;50.234;19.292;2023-07-13T03:47:47;98156.39;;;19.56;89.35
69127;BME280;56688;50.234;19.292;2023-07-13T03:50:16;98163.38;;;19.70;89.57
69127;BME280;56688;50.234;19.292;2023-07-13T03:52:43;98171.49;;;19.83;89.76
69127;BME280;56688;50.234;19.292;2023-07-13T03:55:14;98172.62;;;19.99;89.53
69127;BME280;56688;50.234;19.292;2023-07-13T03:58:23;98172.96;;;20.13;89.30
69127;BME280;56688;50.234;19.292;2023-07-13T04:01:07;98165.80;;;20.26;88.79
69127;BME280;56688;50.234;19.292;2023-07-13T04:03:36;98166.98;;;20.36;88.44
69127;BME280;56688;50.234;19.292;2023-07-13T04:06:08;98161.95;;;20.43;87.98
69127;BME280;56688;50.234;19.292;2023-07-13T04:08:43;98175.02;;;20.56;87.63
69127;BME280;56688;50.234;19.292;2023-07-13T04:11:14;98182.38;;;20.61;87.28
69127;BME280;56688;50.234;19.292;2023-07-13T04:13:41;98185.27;;;20.70;87.02
69127;BME280;56688;50.234;19.292;2023-07-13T04:16:21;98187.44;;;20.78;86.78
69127;BME280;56688;50.234;19.292;2023-07-13T04:18:52;98186.17;;;20.85;86.38
69127;BME280;56688;50.234;19.292;2023-07-13T04:21:22;98194.45;;;20.89;86.18
69127;BME280;56688;50.234;19.292;2023-07-13T04:23:49;98200.74;;;20.95;85.83
69127;BME280;56688;50.234;19.292;2023-07-13T04:26:17;98204.55;;;20.98;85.41
69127;BME280;56688;50.234;19.292;2023-07-13T04:28:44;98203.11;;;21.01;85.17
69127;BME280;56688;50.234;19.292;2023-07-13T04:31:12;98207.11;;;21.08;84.78
69127;BME280;56688;50.234;19.292;2023-07-13T04:33:39;98214.48;;;21.16;84.55
69127;BME280;56688;50.234;19.292;2023-07-13T04:36:19;98213.61;;;21.24;84.41
69127;BME280;56688;50.234;19.292;2023-07-13T04:38:50;98211.72;;;21.32;84.38
69127;BME280;56688;50.234;19.292;2023-07-13T04:41:18;98205.16;;;21.37;84.36
69127;BME280;56688;50.234;19.292;2023-07-13T04:43:46;98201.77;;;21.42;84.00
69127;BME280;56688;50.234;19.292;2023-07-13T04:46:16;98200.55;;;21.48;83.50
69127;BME280;56688;50.234;19.292;2023-07-13T04:48:44;98189.73;;;21.56;83.35
69127;BME280;56688;50.234;19.292;2023-07-13T04:51:12;98181.78;;;21.64;83.17
69127;BME280;56688;50.234;19.292;2023-07-13T04:53:39;98180.44;;;21.74;82.65
69127;BME280;56688;50.234;19.292;2023-07-13T04:56:06;98175.13;;;21.79;82.28
69127;BME280;56688;50.234;19.292;2023-07-13T04:58:33;98162.08;;;21.85;81.73
69127;BME280;56688;50.234;19.292;2023-07-13T05:01:02;98160.08;;;21.91;81.60
69127;BME280;56688;50.234;19.292;2023-07-13T05:03:30;98156.45;;;21.98;81.65
69127;BME280;56688;50.234;19.292;2023-07-13T05:06:00;98160.05;;;22.05;81.20
69127;BME280;56688;50.234;19.292;2023-07-13T05:08:28;98158.34;;;22.13;81.15
69127;BME280;56688;50.234;19.292;2023-07-13T05:10:55;98163.57;;;22.22;81.13
69127;BME280;56688;50.234;19.292;2023-07-13T05:13:22;98160.73;;;22.32;80.44
69127;BME280;56688;50.234;19.292;2023-07-13T05:15:57;98150.77;;;22.42;79.74
69127;BME280;56688;50.234;19.292;2023-07-13T05:18:25;98151.52;;;22.51;80.11
69127;BME280;56688;50.234;19.292;2023-07-13T05:21:01;98144.65;;;22.57;79.59
69127;BME280;56688;50.234;19.292;2023-07-13T05:23:47;98145.45;;;22.65;79.19
69127;BME280;56688;50.234;19.292;2023-07-13T05:26:14;98148.55;;;22.75;79.08
69127;BME280;56688;50.234;19.292;2023-07-13T05:28:42;98153.17;;;22.84;78.57
69127;BME280;56688;50.234;19.292;2023-07-13T05:31:10;98146.20;;;22.88;77.92
69127;BME280;56688;50.234;19.292;2023-07-13T05:33:39;98153.58;;;22.99;77.15
69127;BME280;56688;50.234;19.292;2023-07-13T05:36:07;98160.14;;;23.11;77.02
69127;BME280;56688;50.234;19.292;2023-07-13T05:38:34;98161.17;;;23.25;76.88
69127;BME280;56688;50.234;19.292;2023-07-13T05:41:01;98163.84;;;23.39;76.04
69127;BME280;56688;50.234;19.292;2023-07-13T05:43:31;98157.23;;;23.51;76.00
69127;BME280;56688;50.234;19.292;2023-07-13T05:46:02;98158.80;;;23.67;75.88
69127;BME280;56688;50.234;19.292;2023-07-13T05:48:50;98159.41;;;23.88;74.89
69127;BME280;56688;50.234;19.292;2023-07-13T05:51:25;98154.65;;;24.04;74.20
69127;BME280;56688;50.234;19.292;2023-07-13T05:53:55;98153.94;;;24.18;73.54
69127;BME280;56688;50.234;19.292;2023-07-13T05:56:23;98161.04;;;24.36;72.56
69127;BME280;56688;50.234;19.292;2023-07-13T05:58:50;98154.65;;;24.49;72.34
69127;BME280;56688;50.234;19.292;2023-07-13T06:01:17;98148.07;;;24.62;71.66
69127;BME280;56688;50.234;19.292;2023-07-13T06:03:46;98144.81;;;24.77;71.20
69127;BME280;56688;50.234;19.292;2023-07-13T06:06:14;98143.79;;;24.90;70.74
69127;BME280;56688;50.234;19.292;2023-07-13T06:08:42;98143.99;;;25.03;70.28
69127;BME280;56688;50.234;19.292;2023-07-13T06:11:14;98141.30;;;25.10;69.91
69127;BME280;56688;50.234;19.292;2023-07-13T06:13:42;98148.41;;;25.24;69.42
69127;BME280;56688;50.234;19.292;2023-07-13T06:16:09;98141.48;;;25.31;68.71
69127;BME280;56688;50.234;19.292;2023-07-13T06:18:37;98129.48;;;25.32;68.51
69127;BME280;56688;50.234;19.292;2023-07-13T06:21:08;98126.17;;;25.35;67.93
69127;BME280;56688;50.234;19.292;2023-07-13T06:23:36;98144.33;;;25.48;68.22
69127;BME280;56688;50.234;19.292;2023-07-13T06:26:04;98147.24;;;25.55;68.38
69127;BME280;56688;50.234;19.292;2023-07-13T06:28:32;98156.29;;;25.65;67.77
69127;BME280;56688;50.234;19.292;2023-07-13T06:31:00;98151.05;;;25.75;67.32
69127;BME280;56688;50.234;19.292;2023-07-13T06:33:28;98145.83;;;25.79;67.03
69127;BME280;56688;50.234;19.292;2023-07-13T06:35:56;98147.54;;;25.87;66.75
69127;BME280;56688;50.234;19.292;2023-07-13T06:38:24;98141.90;;;25.94;67.06
69127;BME280;56688;50.234;19.292;2023-07-13T06:40:54;98142.05;;;26.06;66.74
69127;BME280;56688;50.234;19.292;2023-07-13T06:43:24;98143.88;;;26.21;66.55
69127;BME280;56688;50.234;19.292;2023-07-13T06:45:55;98145.04;;;26.43;66.76
69127;BME280;56688;50.234;19.292;2023-07-13T06:48:24;98148.08;;;26.62;65.90
69127;BME280;56688;50.234;19.292;2023-07-13T06:50:51;98144.14;;;26.78;64.18
69127;BME280;56688;50.234;19.292;2023-07-13T06:53:21;98135.87;;;26.92;63.59
69127;BME280;56688;50.234;19.292;2023-07-13T06:55:49;98142.45;;;27.10;64.18
69127;BME280;56688;50.234;19.292;2023-07-13T06:58:18;98139.66;;;27.18;62.69
69127;BME280;56688;50.234;19.292;2023-07-13T07:00:46;98140.27;;;27.18;62.46
69127;BME280;56688;50.234;19.292;2023-07-13T07:03:14;98133.17;;;27.13;60.62
69127;BME280;56688;50.234;19.292;2023-07-13T07:05:42;98145.25;;;27.24;61.25
69127;BME280;56688;50.234;19.292;2023-07-13T07:08:09;98150.55;;;27.25;61.11
69127;BME280;56688;50.234;19.292;2023-07-13T07:10:37;98144.86;;;27.24;61.83
69127;BME280;56688;50.234;19.292;2023-07-13T07:13:04;98151.80;;;27.30;62.23
69127;BME280;56688;50.234;19.292;2023-07-13T07:15:32;98157.37;;;27.36;62.25
69127;BME280;56688;50.234;19.292;2023-07-13T07:17:59;98162.73;;;27.38;60.38
69127;BME280;56688;50.234;19.292;2023-07-13T07:20:26;98161.98;;;27.37;60.33
69127;BME280;56688;50.234;19.292;2023-07-13T07:22:54;98164.97;;;27.38;60.82
69127;BME280;56688;50.234;19.292;2023-07-13T07:25:21;98170.26;;;27.42;61.48
69127;BME280;56688;50.234;19.292;2023-07-13T07:27:54;98175.31;;;27.50;60.04
69127;BME280;56688;50.234;19.292;2023-07-13T07:30:30;98178.86;;;27.58;59.00
69127;BME280;56688;50.234;19.292;2023-07-13T07:33:03;98182.86;;;27.61;57.44
69127;BME280;56688;50.234;19.292;2023-07-13T07:35:31;98189.33;;;27.62;56.51
69127;BME280;56688;50.234;19.292;2023-07-13T07:38:05;98191.12;;;27.55;57.60
69127;BME280;56688;50.234;19.292;2023-07-13T07:40:36;98187.58;;;27.43;58.75
69127;BME280;56688;50.234;19.292;2023-07-13T07:43:08;98192.05;;;27.34;58.84
69127;BME280;56688;50.234;19.292;2023-07-13T07:45:37;98193.34;;;27.13;58.60
69127;BME280;56688;50.234;19.292;2023-07-13T07:48:05;98197.44;;;26.95;60.00
69127;BME280;56688;50.234;19.292;2023-07-13T07:50:32;98196.54;;;26.80;61.28
69127;BME280;56688;50.234;19.292;2023-07-13T07:53:00;98192.89;;;26.67;60.92
69127;BME280;56688;50.234;19.292;2023-07-13T07:55:29;98195.00;;;26.52;60.99
69127;BME280;56688;50.234;19.292;2023-07-13T07:58:00;98190.67;;;26.38;61.75
69127;BME280;56688;50.234;19.292;2023-07-13T08:00:33;98186.59;;;26.21;62.20
69127;BME280;56688;50.234;19.292;2023-07-13T08:03:31;98182.14;;;26.09;63.01
69127;BME280;56688;50.234;19.292;2023-07-13T08:06:07;98187.39;;;26.05;63.30
69127;BME280;56688;50.234;19.292;2023-07-13T08:08:42;98183.55;;;26.02;63.43
69127;BME280;56688;50.234;19.292;2023-07-13T08:11:09;98188.16;;;26.08;63.66
69127;BME280;56688;50.234;19.292;2023-07-13T08:13:58;98180.95;;;26.18;61.15
69127;BME280;56688;50.234;19.292;2023-07-13T08:16:26;98176.10;;;26.26;61.58
69127;BME280;56688;50.234;19.292;2023-07-13T08:23:23;98168.60;;;26.37;60.17
69127;BME280;56688;50.234;19.292;2023-07-13T08:26:03;98160.23;;;26.52;60.07
69127;BME280;56688;50.234;19.292;2023-07-13T08:37:35;98156.92;;;26.77;54.06
69127;BME280;56688;50.234;19.292;2023-07-13T08:48:40;98154.44;;;27.08;53.84
69127;BME280;56688;50.234;19.292;2023-07-13T08:51:24;98151.81;;;27.16;55.54
69127;BME280;56688;50.234;19.292;2023-07-13T08:55:25;98149.38;;;27.14;54.02
69127;BME280;56688;50.234;19.292;2023-07-13T08:58:19;98146.59;;;27.07;55.07
69127;BME280;56688;50.234;19.292;2023-07-13T09:05:56;98145.45;;;27.21;56.17
69127;BME280;56688;50.234;19.292;2023-07-13T09:09:32;98144.92;;;27.28;56.35
69127;BME280;56688;50.234;19.292;2023-07-13T09:17:44;98149.83;;;27.43;56.58
69127;BME280;56688;50.234;19.292;2023-07-13T09:27:56;98149.55;;;27.49;56.76
69127;BME280;56688;50.234;19.292;2023-07-13T09:30:37;98144.38;;;27.49;57.90
69127;BME280;56688;50.234;19.292;2023-07-13T09:33:23;98153.48;;;27.59;58.07
69127;BME280;56688;50.234;19.292;2023-07-13T09:40:53;98149.70;;;27.73;57.07
69127;BME280;56688;50.234;19.292;2023-07-13T09:44:10;98150.42;;;27.59;56.96
69127;BME280;56688;50.234;19.292;2023-07-13T09:46:56;98150.09;;;27.46;56.78
69127;BME280;56688;50.234;19.292;2023-07-13T09:49:34;98147.63;;;27.35;56.22
69127;BME280;56688;50.234;19.292;2023-07-13T09:56:22;98156.15;;;26.94;56.76
69127;BME280;56688;50.234;19.292;2023-07-13T09:58:53;98153.36;;;26.68;57.12
69127;BME280;56688;50.234;19.292;2023-07-13T10:01:33;98160.63;;;26.53;57.86
69127;BME280;56688;50.234;19.292;2023-07-13T10:07:44;98166.90;;;25.99;62.45
69127;BME280;56688;50.234;19.292;2023-07-13T10:10:15;98173.35;;;25.72;63.05
69127;BME280;56688;50.234;19.292;2023-07-13T10:12:44;98185.05;;;25.42;64.27
69127;BME280;56688;50.234;19.292;2023-07-13T10:15:17;98191.67;;;25.19;65.80
69127;BME280;56688;50.234;19.292;2023-07-13T10:17:55;98197.30;;;24.90;66.00
69127;BME280;56688;50.234;19.292;2023-07-13T10:20:22;98202.59;;;24.51;66.04
69127;BME280;56688;50.234;19.292;2023-07-13T10:22:59;98215.36;;;24.19;67.08
69127;BME280;56688;50.234;19.292;2023-07-13T10:25:32;98224.92;;;23.80;67.09
69127;BME280;56688;50.234;19.292;2023-07-13T10:28:09;98235.10;;;23.40;67.61
69127;BME280;56688;50.234;19.292;2023-07-13T10:30:45;98255.65;;;22.95;68.44
69127;BME280;56688;50.234;19.292;2023-07-13T10:33:18;98274.95;;;22.51;69.69
69127;BME280;56688;50.234;19.292;2023-07-13T10:35:52;98288.77;;;22.13;70.58
69127;BME280;56688;50.234;19.292;2023-07-13T10:38:23;98295.16;;;21.79;71.61
69127;BME280;56688;50.234;19.292;2023-07-13T10:43:35;98318.93;;;21.17;72.68
69127;BME280;56688;50.234;19.292;2023-07-13T10:46:07;98336.57;;;20.87;73.07
69127;BME280;56688;50.234;19.292;2023-07-13T10:48:35;98346.45;;;20.57;73.79
69127;BME280;56688;50.234;19.292;2023-07-13T10:51:05;98354.41;;;20.32;74.60
69127;BME280;56688;50.234;19.292;2023-07-13T10:53:35;98358.86;;;20.13;75.15
69127;BME280;56688;50.234;19.292;2023-07-13T10:56:23;98360.44;;;19.91;75.73
69127;BME280;56688;50.234;19.292;2023-07-13T10:59:02;98369.15;;;19.74;76.52
69127;BME280;56688;50.234;19.292;2023-07-13T11:01:50;98369.74;;;19.55;76.48
69127;BME280;56688;50.234;19.292;2023-07-13T11:04:19;98369.86;;;19.41;77.25
69127;BME280;56688;50.234;19.292;2023-07-13T11:06:50;98372.27;;;19.32;77.52
69127;BME280;56688;50.234;19.292;2023-07-13T11:11:45;98365.40;;;19.12;78.21
69127;BME280;56688;50.234;19.292;2023-07-13T11:16:47;98366.82;;;18.96;79.38
69127;BME280;56688;50.234;19.292;2023-07-13T11:24:47;98363.94;;;18.90;80.63
69127;BME280;56688;50.234;19.292;2023-07-13T11:30:23;98363.52;;;18.95;81.05
69127;BME280;56688;50.234;19.292;2023-07-13T11:33:03;98360.13;;;18.95;81.54
69127;BME280;56688;50.234;19.292;2023-07-13T11:36:03;98364.55;;;18.96;81.70
69127;BME280;56688;50.234;19.292;2023-07-13T11:38:38;98372.71;;;18.99;81.74
69127;BME280;56688;50.234;19.292;2023-07-13T11:41:14;98374.80;;;19.03;82.14
69127;BME280;56688;50.234;19.292;2023-07-13T11:43:44;98374.98;;;19.09;82.08
69127;BME280;56688;50.234;19.292;2023-07-13T11:46:13;98375.83;;;19.13;81.76
69127;BME280;56688;50.234;19.292;2023-07-13T11:48:42;98369.57;;;19.19;81.69
69127;BME280;56688;50.234;19.292;2023-07-13T11:51:22;98372.23;;;19.22;81.59
69127;BME280;56688;50.234;19.292;2023-07-13T11:53:52;98372.59;;;19.28;81.80
69127;BME280;56688;50.234;19.292;2023-07-13T11:56:24;98369.61;;;19.35;82.06
69127;BME280;56688;50.234;19.292;2023-07-13T11:58:56;98365.58;;;19.41;82.08
69127;BME280;56688;50.234;19.292;2023-07-13T12:01:25;98362.88;;;19.50;82.34
69127;BME280;56688;50.234;19.292;2023-07-13T12:03:53;98365.17;;;19.60;81.74
69127;BME280;56688;50.234;19.292;2023-07-13T12:06:23;98367.37;;;19.70;81.63
69127;BME280;56688;50.234;19.292;2023-07-13T12:08:51;98373.96;;;19.81;81.57
69127;BME280;56688;50.234;19.292;2023-07-13T12:11:18;98372.14;;;19.91;81.78
69127;BME280;56688;50.234;19.292;2023-07-13T12:13:47;98367.61;;;20.01;81.13
69127;BME280;56688;50.234;19.292;2023-07-13T12:18:43;98373.48;;;20.24;80.75
69127;BME280;56688;50.234;19.292;2023-07-13T12:21:18;98373.83;;;20.36;80.14
69127;BME280;56688;50.234;19.292;2023-07-13T12:23:48;98372.44;;;20.50;79.31
69127;BME280;56688;50.234;19.292;2023-07-13T12:26:17;98366.81;;;20.62;78.89
69127;BME280;56688;50.234;19.292;2023-07-13T12:28:48;98355.10;;;20.71;78.34
69127;BME280;56688;50.234;19.292;2023-07-13T12:31:25;98350.19;;;20.72;77.47
69127;BME280;56688;50.234;19.292;2023-07-13T12:34:09;98351.92;;;20.77;78.40
69127;BME280;56688;50.234;19.292;2023-07-13T12:36:46;98361.10;;;20.85;78.47
69127;BME280;56688;50.234;19.292;2023-07-13T12:39:21;98358.95;;;20.96;78.31
69127;BME280;56688;50.234;19.292;2023-07-13T12:41:50;98362.72;;;21.03;76.36
69127;BME280;56688;50.234;19.292;2023-07-13T12:44:26;98363.33;;;21.12;76.88
69127;BME280;56688;50.234;19.292;2023-07-13T12:46:59;98359.98;;;21.27;76.99
69127;BME280;56688;50.234;19.292;2023-07-13T12:49:31;98362.50;;;21.43;75.66
69127;BME280;56688;50.234;19.292;2023-07-13T12:52:04;98357.45;;;21.63;75.35
69127;BME280;56688;50.234;19.292;2023-07-13T12:54:38;98356.30;;;21.93;75.96
69127;BME280;56688;50.234;19.292;2023-07-13T12:57:16;98354.33;;;22.21;74.99
69127;BME280;56688;50.234;19.292;2023-07-13T12:59:43;98357.01;;;22.42;73.25
69127;BME280;56688;50.234;19.292;2023-07-13T13:02:26;98363.50;;;22.56;72.99
69127;BME280;56688;50.234;19.292;2023-07-13T13:04:57;98362.77;;;22.64;72.92
69127;BME280;56688;50.234;19.292;2023-07-13T13:07:25;98363.21;;;22.75;72.39
69127;BME280;56688;50.234;19.292;2023-07-13T13:09:56;98374.48;;;22.90;71.17
69127;BME280;56688;50.234;19.292;2023-07-13T13:12:23;98368.39;;;22.95;70.61
69127;BME280;56688;50.234;19.292;2023-07-13T13:14:53;98376.72;;;22.97;69.38
69127;BME280;56688;50.234;19.292;2023-07-13T13:17:23;98387.52;;;23.07;69.72
69127;BME280;56688;50.234;19.292;2023-07-13T13:19:51;98387.84;;;23.06;68.66
69127;BME280;56688;50.234;19.292;2023-07-13T13:22:22;98389.97;;;23.07;68.93
69127;BME280;56688;50.234;19.292;2023-07-13T13:24:49;98393.02;;;23.08;68.70
69127;BME280;56688;50.234;19.292;2023-07-13T13:27:18;98398.52;;;22.98;68.20
69127;BME280;56688;50.234;19.292;2023-07-13T13:29:46;98406.31;;;22.97;68.90
69127;BME280;56688;50.234;19.292;2023-07-13T13:32:14;98409.42;;;22.94;69.42
69127;BME280;56688;50.234;19.292;2023-07-13T13:34:42;98407.19;;;22.94;68.33
69127;BME280;56688;50.234;19.292;2023-07-13T13:37:16;98406.96;;;22.98;69.50
69127;BME280;56688;50.234;19.292;2023-07-13T13:39:44;98407.03;;;23.10;69.72
69127;BME280;56688;50.234;19.292;2023-07-13T13:42:28;98409.81;;;23.19;69.53
69127;BME280;56688;50.234;19.292;2023-07-13T13:44:55;98403.91;;;23.39;70.06
69127;BME280;56688;50.234;19.292;2023-07-13T13:47:32;98405.04;;;23.72;69.07
69127;BME280;56688;50.234;19.292;2023-07-13T13:50:00;98404.92;;;23.99;65.51
69127;BME280;56688;50.234;19.292;2023-07-13T13:52:27;98402.02;;;24.03;65.89
69127;BME280;56688;50.234;19.292;2023-07-13T13:54:54;98402.63;;;24.33;66.92
69127;BME280;56688;50.234;19.292;2023-07-13T13:57:23;98405.77;;;24.53;62.58
69127;BME280;56688;50.234;19.292;2023-07-13T13:59:52;98403.95;;;24.55;63.04
69127;BME280;56688;50.234;19.292;2023-07-13T14:02:24;98408.59;;;24.77;63.67
69127;BME280;56688;50.234;19.292;2023-07-13T14:04:55;98408.95;;;24.97;64.51
69127;BME280;56688;50.234;19.292;2023-07-13T14:07:23;98410.62;;;25.17;64.53
69127;BME280;56688;50.234;19.292;2023-07-13T14:09:51;98410.29;;;25.26;62.27
69127;BME280;56688;50.234;19.292;2023-07-13T14:12:19;98413.48;;;25.21;62.15
69127;BME280;56688;50.234;19.292;2023-07-13T14:14:46;98410.92;;;25.13;62.30
69127;BME280;56688;50.234;19.292;2023-07-13T14:17:19;98414.75;;;25.04;62.29
69127;BME280;56688;50.234;19.292;2023-07-13T14:19:50;98416.68;;;24.92;62.39
69127;BME280;56688;50.234;19.292;2023-07-13T14:22:18;98419.73;;;24.77;62.56
69127;BME280;56688;50.234;19.292;2023-07-13T14:24:45;98423.69;;;24.64;62.73
69127;BME280;56688;50.234;19.292;2023-07-13T14:27:12;98423.48;;;24.52;63.42
69127;BME280;56688;50.234;19.292;2023-07-13T14:29:39;98422.84;;;24.36;62.80
69127;BME280;56688;50.234;19.292;2023-07-13T14:32:11;98418.39;;;24.25;64.19
69127;BME280;56688;50.234;19.292;2023-07-13T14:34:38;98415.72;;;24.19;63.13
69127;BME280;56688;50.234;19.292;2023-07-13T14:37:13;98414.73;;;24.07;63.40
69127;BME280;56688;50.234;19.292;2023-07-13T14:39:43;98418.41;;;23.94;63.16
69127;BME280;56688;50.234;19.292;2023-07-13T14:42:10;98414.13;;;23.85;64.75
69127;BME280;56688;50.234;19.292;2023-07-13T14:44:38;98414.31;;;23.77;65.33
69127;BME280;56688;50.234;19.292;2023-07-13T14:47:06;98405.09;;;23.74;66.34
69127;BME280;56688;50.234;19.292;2023-07-13T14:49:39;98399.97;;;23.78;66.04
69127;BME280;56688;50.234;19.292;2023-07-13T14:52:15;98395.20;;;23.87;65.88
69127;BME280;56688;50.234;19.292;2023-07-13T14:54:43;98398.08;;;23.93;65.74
69127;BME280;56688;50.234;19.292;2023-07-13T14:57:13;98400.10;;;24.05;66.13
69127;BME280;56688;50.234;19.292;2023-07-13T14:59:40;98404.95;;;24.21;64.79
69127;BME280;56688;50.234;19.292;2023-07-13T15:02:15;98409.52;;;24.44;64.64
69127;BME280;56688;50.234;19.292;2023-07-13T15:04:42;98412.02;;;24.57;63.31
69127;BME280;56688;50.234;19.292;2023-07-13T15:07:13;98420.58;;;24.61;62.15
69127;BME280;56688;50.234;19.292;2023-07-13T15:09:42;98422.46;;;24.69;63.07
69127;BME280;56688;50.234;19.292;2023-07-13T15:12:09;98417.00;;;24.74;62.65
69127;BME280;56688;50.234;19.292;2023-07-13T15:14:36;98416.44;;;24.70;61.05
69127;BME280;56688;50.234;19.292;2023-07-13T15:17:04;98412.38;;;24.53;60.76
69127;BME280;56688;50.234;19.292;2023-07-13T15:19:31;98412.19;;;24.48;61.88
69127;BME280;56688;50.234;19.292;2023-07-13T15:21:58;98412.14;;;24.45;62.76
69127;BME280;56688;50.234;19.292;2023-07-13T15:24:26;98413.39;;;24.38;62.30